sensor_id;sensor_type;location;lat;lon;timestamp;temperature;humidity
13591;DHT22;6866;50.778;7.206;2022-10-31T00:01:13;13.00;99.90
13591;DHT22;6866;50.778;7.206;2022-10-31T00:03:39;12.90;99.90
13591;DHT22;6866;50.778;7.206;2022-10-31T00:06:04;12.70;99.90
13591;DHT22;6866;50.778;7.206;2022-10-31T00:08:30;12.80;99.90
13591;DHT22;6866;50.778;7.206;2022-10-31T00:10:56;12.70;99.90
13591;DHT22;6866;50.778;7.206;2022-10-31T00:13:21;12.70;99.90
13591;DHT22;6866;50.778;7.206;2022-10-31T00:15:47;12.70;99.90
13591;DHT22;6866;50.778;7.206;2022-10-31T00:18:12;12.70;99.90
13591;DHT22;6866;50.778;7.206;2022-10-31T00:20:38;12.70;99.90
13591;DHT22;6866;50.778;7.206;2022-10-31T00:23:05;12.70;99.90
13591;DHT22;6866;50.778;7.206;2022-10-31T00:25:34;12.70;99.90
13591;DHT22;6866;50.778;7.206;2022-10-31T00:28:00;12.60;99.90
13591;DHT22;6866;50.778;7.206;2022-10-31T00:30:26;12.60;99.90
13591;DHT22;6866;50.778;7.206;2022-10-31T00:32:51;12.70;99.90
13591;DHT22;6866;50.778;7.206;2022-10-31T00:35:17;12.80;99.90
13591;DHT22;6866;50.778;7.206;2022-10-31T00:37:42;12.80;99.90
13591;DHT22;6866;50.778;7.206;2022-10-31T00:40:08;12.70;99.90
13591;DHT22;6866;50.778;7.206;2022-10-31T00:42:34;12.70;99.90
13591;DHT22;6866;50.778;7.206;2022-10-31T00:44:59;12.70;99.90
13591;DHT22;6866;50.778;7.206;2022-10-31T00:47:25;12.70;99.90
13591;DHT22;6866;50.778;7.206;2022-10-31T00:49:51;12.60;99.90
13591;DHT22;6866;50.778;7.206;2022-10-31T00:52:16;12.60;99.90
13591;DHT22;6866;50.778;7.206;2022-10-31T00:54:41;12.60;99.90
13591;DHT22;6866;50.778;7.206;2022-10-31T00:57:07;12.60;99.90
13591;DHT22;6866;50.778;7.206;2022-10-31T00:59:32;12.60;99.90
13591;DHT22;6866;50.778;7.206;2022-10-31T01:01:58;12.60;99.90
13591;DHT22;6866;50.778;7.206;2022-10-31T01:04:23;12.60;99.90
13591;DHT22;6866;50.778;7.206;2022-10-31T01:06:49;12.60;99.90
13591;DHT22;6866;50.778;7.206;2022-10-31T01:09:15;12.60;99.90
13591;DHT22;6866;50.778;7.206;2022-10-31T01:11:40;12.70;99.90
13591;DHT22;6866;50.778;7.206;2022-10-31T01:14:06;12.60;99.90
13591;DHT22;6866;50.778;7.206;2022-10-31T01:16:31;12.60;99.90
13591;DHT22;6866;50.778;7.206;2022-10-31T01:18:57;12.60;99.90
13591;DHT22;6866;50.778;7.206;2022-10-31T01:21:25;12.40;99.90
13591;DHT22;6866;50.778;7.206;2022-10-31T01:23:53;12.30;99.90
13591;DHT22;6866;50.778;7.206;2022-10-31T01:26:24;12.40;99.90
13591;DHT22;6866;50.778;7.206;2022-10-31T01:28:55;12.30;99.90
13591;DHT22;6866;50.778;7.206;2022-10-31T01:31:24;12.40;99.90
13591;DHT22;6866;50.778;7.206;2022-10-31T01:33:49;12.40;99.90
13591;DHT22;6866;50.778;7.206;2022-10-31T01:36:21;12.40;99.90
13591;DHT22;6866;50.778;7.206;2022-10-31T01:38:48;12.40;99.90
13591;DHT22;6866;50.778;7.206;2022-10-31T01:41:16;12.20;99.90
13591;DHT22;6866;50.778;7.206;2022-10-31T01:44:03;12.30;99.90
13591;DHT22;6866;50.778;7.206;2022-10-31T01:49:27;12.20;99.90
13591;DHT22;6866;50.778;7.206;2022-10-31T01:52:00;12.20;99.90
13591;DHT22;6866;50.778;7.206;2022-10-31T01:54:32;12.30;99.90
13591;DHT22;6866;50.778;7.206;2022-10-31T01:56:59;12.20;99.90
13591;DHT22;6866;50.778;7.206;2022-10-31T01:59:29;12.20;99.90
13591;DHT22;6866;50.778;7.206;2022-10-31T02:04:31;12.00;99.90
13591;DHT22;6866;50.778;7.206;2022-10-31T02:07:07;12.00;99.90
13591;DHT22;6866;50.778;7.206;2022-10-31T02:09:34;12.00;99.90
13591;DHT22;6866;50.778;7.206;2022-10-31T02:12:02;12.10;99.90
13591;DHT22;6866;50.778;7.206;2022-10-31T02:14:29;12.10;99.90
13591;DHT22;6866;50.778;7.206;2022-10-31T02:16:55;12.20;99.90
13591;DHT22;6866;50.778;7.206;2022-10-31T02:22:49;12.20;99.90
13591;DHT22;6866;50.778;7.206;2022-10-31T02:25:13;12.10;99.90
13591;DHT22;6866;50.778;7.206;2022-10-31T02:31:16;12.30;99.90
13591;DHT22;6866;50.778;7.206;2022-10-31T02:33:52;12.40;99.90
13591;DHT22;6866;50.778;7.206;2022-10-31T02:36:24;12.30;99.90
13591;DHT22;6866;50.778;7.206;2022-10-31T02:44:22;12.30;99.90
13591;DHT22;6866;50.778;7.206;2022-10-31T02:47:16;12.30;99.90
13591;DHT22;6866;50.778;7.206;2022-10-31T02:49:58;12.20;99.90
13591;DHT22;6866;50.778;7.206;2022-10-31T02:52:27;12.10;99.90
13591;DHT22;6866;50.778;7.206;2022-10-31T02:54:53;12.10;99.90
13591;DHT22;6866;50.778;7.206;2022-10-31T02:57:24;12.10;99.90
13591;DHT22;6866;50.778;7.206;2022-10-31T02:59:55;12.20;99.90
13591;DHT22;6866;50.778;7.206;2022-10-31T03:05:19;12.10;99.90
13591;DHT22;6866;50.778;7.206;2022-10-31T03:08:22;12.10;99.90
13591;DHT22;6866;50.778;7.206;2022-10-31T03:11:06;12.20;99.90
13591;DHT22;6866;50.778;7.206;2022-10-31T03:13:57;12.20;99.90
13591;DHT22;6866;50.778;7.206;2022-10-31T03:19:12;12.00;99.90
13591;DHT22;6866;50.778;7.206;2022-10-31T03:21:47;12.00;99.90
13591;DHT22;6866;50.778;7.206;2022-10-31T03:24:15;12.00;99.90
13591;DHT22;6866;50.778;7.206;2022-10-31T03:26:44;12.00;99.90
13591;DHT22;6866;50.778;7.206;2022-10-31T03:29:15;12.10;99.90
13591;DHT22;6866;50.778;7.206;2022-10-31T03:32:03;12.00;99.90
13591;DHT22;6866;50.778;7.206;2022-10-31T03:34:31;11.90;99.90
13591;DHT22;6866;50.778;7.206;2022-10-31T03:37:00;11.90;99.90
13591;DHT22;6866;50.778;7.206;2022-10-31T03:39:28;11.90;99.90
13591;DHT22;6866;50.778;7.206;2022-10-31T03:44:31;11.80;99.90
13591;DHT22;6866;50.778;7.206;2022-10-31T03:46:57;11.90;99.90
13591;DHT22;6866;50.778;7.206;2022-10-31T03:49:23;11.90;99.90
13591;DHT22;6866;50.778;7.206;2022-10-31T03:52:00;11.90;99.90
13591;DHT22;6866;50.778;7.206;2022-10-31T03:54:45;11.90;99.90
13591;DHT22;6866;50.778;7.206;2022-10-31T04:00:11;11.80;99.90
13591;DHT22;6866;50.778;7.206;2022-10-31T04:02:43;11.80;99.90
13591;DHT22;6866;50.778;7.206;2022-10-31T04:05:12;11.80;99.90
13591;DHT22;6866;50.778;7.206;2022-10-31T04:07:41;11.70;99.90
13591;DHT22;6866;50.778;7.206;2022-10-31T04:10:11;11.60;99.90
13591;DHT22;6866;50.778;7.206;2022-10-31T04:12:39;11.60;99.90
13591;DHT22;6866;50.778;7.206;2022-10-31T04:15:06;11.60;99.90
13591;DHT22;6866;50.778;7.206;2022-10-31T04:17:36;11.50;99.90
13591;DHT22;6866;50.778;7.206;2022-10-31T04:20:04;11.40;99.90
13591;DHT22;6866;50.778;7.206;2022-10-31T04:22:30;11.40;99.90
13591;DHT22;6866;50.778;7.206;2022-10-31T04:24:56;11.40;99.90
13591;DHT22;6866;50.778;7.206;2022-10-31T04:27:21;11.40;99.90
13591;DHT22;6866;50.778;7.206;2022-10-31T04:29:47;11.50;99.90
13591;DHT22;6866;50.778;7.206;2022-10-31T04:32:12;11.50;99.90
13591;DHT22;6866;50.778;7.206;2022-10-31T04:34:38;11.40;99.90
13591;DHT22;6866;50.778;7.206;2022-10-31T04:37:03;11.50;99.90
13591;DHT22;6866;50.778;7.206;2022-10-31T04:39:29;11.60;99.90
13591;DHT22;6866;50.778;7.206;2022-10-31T04:41:54;11.60;99.90
13591;DHT22;6866;50.778;7.206;2022-10-31T04:44:20;11.50;99.90
13591;DHT22;6866;50.778;7.206;2022-10-31T04:46:46;11.50;99.90
13591;DHT22;6866;50.778;7.206;2022-10-31T04:49:11;11.50;99.90
13591;DHT22;6866;50.778;7.206;2022-10-31T04:51:37;11.50;99.90
13591;DHT22;6866;50.778;7.206;2022-10-31T04:54:02;11.40;99.90
13591;DHT22;6866;50.778;7.206;2022-10-31T04:56:28;11.50;99.90
13591;DHT22;6866;50.778;7.206;2022-10-31T04:58:54;11.30;99.90
13591;DHT22;6866;50.778;7.206;2022-10-31T05:01:19;11.30;99.90
13591;DHT22;6866;50.778;7.206;2022-10-31T05:03:45;11.30;99.90
13591;DHT22;6866;50.778;7.206;2022-10-31T05:06:10;11.40;99.90
13591;DHT22;6866;50.778;7.206;2022-10-31T05:08:36;11.40;99.90
13591;DHT22;6866;50.778;7.206;2022-10-31T05:11:02;11.40;99.90
13591;DHT22;6866;50.778;7.206;2022-10-31T05:13:28;11.40;99.90
13591;DHT22;6866;50.778;7.206;2022-10-31T05:15:54;11.40;99.90
13591;DHT22;6866;50.778;7.206;2022-10-31T05:18:20;11.20;99.90
13591;DHT22;6866;50.778;7.206;2022-10-31T05:20:46;11.20;99.90
13591;DHT22;6866;50.778;7.206;2022-10-31T05:23:11;11.30;99.90
13591;DHT22;6866;50.778;7.206;2022-10-31T05:25:37;11.30;99.90
13591;DHT22;6866;50.778;7.206;2022-10-31T05:28:02;11.20;99.90
13591;DHT22;6866;50.778;7.206;2022-10-31T05:30:30;11.20;99.90
13591;DHT22;6866;50.778;7.206;2022-10-31T05:32:56;11.20;99.90
13591;DHT22;6866;50.778;7.206;2022-10-31T05:35:31;11.00;99.90
13591;DHT22;6866;50.778;7.206;2022-10-31T05:37:57;11.00;99.90
13591;DHT22;6866;50.778;7.206;2022-10-31T05:40:24;11.00;99.90
13591;DHT22;6866;50.778;7.206;2022-10-31T05:42:55;11.10;99.90
13591;DHT22;6866;50.778;7.206;2022-10-31T05:45:22;11.20;99.90
13591;DHT22;6866;50.778;7.206;2022-10-31T05:47:55;11.10;99.90
13591;DHT22;6866;50.778;7.206;2022-10-31T05:50:22;11.10;99.90
13591;DHT22;6866;50.778;7.206;2022-10-31T05:52:57;11.20;99.90
13591;DHT22;6866;50.778;7.206;2022-10-31T05:55:24;11.10;99.90
13591;DHT22;6866;50.778;7.206;2022-10-31T05:57:51;11.20;99.90
13591;DHT22;6866;50.778;7.206;2022-10-31T06:00:18;11.20;99.90
13591;DHT22;6866;50.778;7.206;2022-10-31T06:02:44;11.30;99.90
13591;DHT22;6866;50.778;7.206;2022-10-31T06:05:09;11.30;99.90
13591;DHT22;6866;50.778;7.206;2022-10-31T06:07:35;11.30;99.90
13591;DHT22;6866;50.778;7.206;2022-10-31T06:10:02;11.30;99.90
13591;DHT22;6866;50.778;7.206;2022-10-31T06:12:28;11.30;99.90
13591;DHT22;6866;50.778;7.206;2022-10-31T06:14:53;11.20;99.90
13591;DHT22;6866;50.778;7.206;2022-10-31T06:17:19;11.30;99.90
13591;DHT22;6866;50.778;7.206;2022-10-31T06:19:44;11.30;99.90
13591;DHT22;6866;50.778;7.206;2022-10-31T06:22:10;11.30;99.90
13591;DHT22;6866;50.778;7.206;2022-10-31T06:24:38;11.40;99.90
13591;DHT22;6866;50.778;7.206;2022-10-31T06:27:04;11.30;99.90
13591;DHT22;6866;50.778;7.206;2022-10-31T06:29:30;11.30;99.90
13591;DHT22;6866;50.778;7.206;2022-10-31T06:31:56;11.40;99.90
13591;DHT22;6866;50.778;7.206;2022-10-31T06:34:21;11.40;99.90
13591;DHT22;6866;50.778;7.206;2022-10-31T06:36:47;11.40;99.90
13591;DHT22;6866;50.778;7.206;2022-10-31T06:39:13;11.40;99.90
13591;DHT22;6866;50.778;7.206;2022-10-31T06:41:39;11.50;99.90
13591;DHT22;6866;50.778;7.206;2022-10-31T06:44:06;11.50;99.90
13591;DHT22;6866;50.778;7.206;2022-10-31T06:46:31;11.60;99.90
13591;DHT22;6866;50.778;7.206;2022-10-31T06:48:57;11.60;99.90
13591;DHT22;6866;50.778;7.206;2022-10-31T06:51:22;11.80;99.90
13591;DHT22;6866;50.778;7.206;2022-10-31T06:53:48;11.90;99.90
13591;DHT22;6866;50.778;7.206;2022-10-31T06:56:13;11.90;99.90
13591;DHT22;6866;50.778;7.206;2022-10-31T06:58:39;11.90;99.90
13591;DHT22;6866;50.778;7.206;2022-10-31T07:01:04;11.90;99.90
13591;DHT22;6866;50.778;7.206;2022-10-31T07:03:30;11.90;99.90
13591;DHT22;6866;50.778;7.206;2022-10-31T07:05:56;12.20;99.90
13591;DHT22;6866;50.778;7.206;2022-10-31T07:08:22;12.40;99.90
13591;DHT22;6866;50.778;7.206;2022-10-31T07:10:54;12.30;99.90
13591;DHT22;6866;50.778;7.206;2022-10-31T07:13:20;12.20;99.90
13591;DHT22;6866;50.778;7.206;2022-10-31T07:16:00;12.20;99.90
13591;DHT22;6866;50.778;7.206;2022-10-31T07:18:26;12.60;99.90
13591;DHT22;6866;50.778;7.206;2022-10-31T07:20:52;12.80;99.90
13591;DHT22;6866;50.778;7.206;2022-10-31T07:23:17;12.80;99.90
13591;DHT22;6866;50.778;7.206;2022-10-31T07:25:43;12.80;99.90
13591;DHT22;6866;50.778;7.206;2022-10-31T07:28:09;12.90;99.90
13591;DHT22;6866;50.778;7.206;2022-10-31T07:30:35;13.00;99.90
13591;DHT22;6866;50.778;7.206;2022-10-31T07:33:01;13.20;99.90
13591;DHT22;6866;50.778;7.206;2022-10-31T07:35:28;13.00;99.90
13591;DHT22;6866;50.778;7.206;2022-10-31T07:37:54;13.00;99.90
13591;DHT22;6866;50.778;7.206;2022-10-31T07:40:20;13.00;99.90
13591;DHT22;6866;50.778;7.206;2022-10-31T07:42:48;13.20;99.90
13591;DHT22;6866;50.778;7.206;2022-10-31T07:45:17;13.50;99.90
13591;DHT22;6866;50.778;7.206;2022-10-31T07:47:47;13.60;99.90
13591;DHT22;6866;50.778;7.206;2022-10-31T07:50:18;13.60;99.90
13591;DHT22;6866;50.778;7.206;2022-10-31T07:52:44;13.60;99.90
13591;DHT22;6866;50.778;7.206;2022-10-31T07:55:10;13.70;99.90
13591;DHT22;6866;50.778;7.206;2022-10-31T07:57:36;13.70;99.90
13591;DHT22;6866;50.778;7.206;2022-10-31T08:00:09;13.80;99.90
13591;DHT22;6866;50.778;7.206;2022-10-31T08:02:35;13.90;99.90
13591;DHT22;6866;50.778;7.206;2022-10-31T08:05:01;14.00;99.90
13591;DHT22;6866;50.778;7.206;2022-10-31T08:07:29;14.00;99.90
13591;DHT22;6866;50.778;7.206;2022-10-31T08:09:55;14.00;99.90
13591;DHT22;6866;50.778;7.206;2022-10-31T08:12:21;14.10;99.90
13591;DHT22;6866;50.778;7.206;2022-10-31T08:14:47;14.20;99.90
13591;DHT22;6866;50.778;7.206;2022-10-31T08:17:12;13.90;99.90
13591;DHT22;6866;50.778;7.206;2022-10-31T08:19:38;14.10;99.90
13591;DHT22;6866;50.778;7.206;2022-10-31T08:22:03;14.00;99.90
13591;DHT22;6866;50.778;7.206;2022-10-31T08:24:29;14.20;99.90
13591;DHT22;6866;50.778;7.206;2022-10-31T08:26:54;14.30;99.90
13591;DHT22;6866;50.778;7.206;2022-10-31T08:29:20;14.40;99.90
13591;DHT22;6866;50.778;7.206;2022-10-31T08:31:45;14.40;99.90
13591;DHT22;6866;50.778;7.206;2022-10-31T08:34:11;14.30;99.90
13591;DHT22;6866;50.778;7.206;2022-10-31T08:36:36;14.20;99.90
13591;DHT22;6866;50.778;7.206;2022-10-31T08:39:02;14.20;99.90
13591;DHT22;6866;50.778;7.206;2022-10-31T08:41:28;14.20;99.90
13591;DHT22;6866;50.778;7.206;2022-10-31T08:43:54;14.20;99.90
13591;DHT22;6866;50.778;7.206;2022-10-31T08:46:20;14.10;99.90
13591;DHT22;6866;50.778;7.206;2022-10-31T08:48:49;14.30;99.90
13591;DHT22;6866;50.778;7.206;2022-10-31T08:51:14;14.30;99.90
13591;DHT22;6866;50.778;7.206;2022-10-31T08:53:40;14.30;99.90
13591;DHT22;6866;50.778;7.206;2022-10-31T08:56:06;14.40;99.90
13591;DHT22;6866;50.778;7.206;2022-10-31T08:58:31;14.40;99.90
13591;DHT22;6866;50.778;7.206;2022-10-31T09:00:59;14.30;99.90
13591;DHT22;6866;50.778;7.206;2022-10-31T09:03:28;14.30;99.90
13591;DHT22;6866;50.778;7.206;2022-10-31T09:05:58;14.40;99.90
13591;DHT22;6866;50.778;7.206;2022-10-31T09:08:24;14.40;99.90
13591;DHT22;6866;50.778;7.206;2022-10-31T09:10:50;14.30;99.90
13591;DHT22;6866;50.778;7.206;2022-10-31T09:13:19;14.40;99.90
13591;DHT22;6866;50.778;7.206;2022-10-31T09:15:47;14.60;99.90
13591;DHT22;6866;50.778;7.206;2022-10-31T09:18:14;14.70;99.90
13591;DHT22;6866;50.778;7.206;2022-10-31T09:20:41;14.80;99.90
13591;DHT22;6866;50.778;7.206;2022-10-31T09:23:12;14.80;99.90
13591;DHT22;6866;50.778;7.206;2022-10-31T09:25:38;14.80;99.90
13591;DHT22;6866;50.778;7.206;2022-10-31T09:28:05;15.30;99.90
13591;DHT22;6866;50.778;7.206;2022-10-31T09:30:33;15.30;99.50
13591;DHT22;6866;50.778;7.206;2022-10-31T09:33:00;15.80;99.10
13591;DHT22;6866;50.778;7.206;2022-10-31T09:35:26;16.00;97.50
13591;DHT22;6866;50.778;7.206;2022-10-31T09:37:59;16.30;96.80
13591;DHT22;6866;50.778;7.206;2022-10-31T09:40:36;16.90;93.60
13591;DHT22;6866;50.778;7.206;2022-10-31T09:43:22;17.10;93.00
13591;DHT22;6866;50.778;7.206;2022-10-31T09:51:51;17.50;91.00
13591;DHT22;6866;50.778;7.206;2022-10-31T09:54:28;18.00;88.90
13591;DHT22;6866;50.778;7.206;2022-10-31T09:56:57;18.70;85.60
13591;DHT22;6866;50.778;7.206;2022-10-31T09:59:33;18.70;82.20
13591;DHT22;6866;50.778;7.206;2022-10-31T10:05:21;18.70;81.90
13591;DHT22;6866;50.778;7.206;2022-10-31T10:07:59;18.40;80.90
13591;DHT22;6866;50.778;7.206;2022-10-31T10:19:17;17.10;91.60
13591;DHT22;6866;50.778;7.206;2022-10-31T10:30:02;16.50;94.30
13591;DHT22;6866;50.778;7.206;2022-10-31T10:32:31;16.60;94.10
13591;DHT22;6866;50.778;7.206;2022-10-31T10:38:20;16.60;94.20
13591;DHT22;6866;50.778;7.206;2022-10-31T10:40:47;16.60;94.80
13591;DHT22;6866;50.778;7.206;2022-10-31T10:43:37;16.60;94.50
13591;DHT22;6866;50.778;7.206;2022-10-31T10:46:19;16.60;95.20
13591;DHT22;6866;50.778;7.206;2022-10-31T10:49:24;16.80;94.90
13591;DHT22;6866;50.778;7.206;2022-10-31T10:57:21;17.00;94.70
13591;DHT22;6866;50.778;7.206;2022-10-31T10:59:47;17.00;95.40
13591;DHT22;6866;50.778;7.206;2022-10-31T11:02:23;17.20;94.30
13591;DHT22;6866;50.778;7.206;2022-10-31T11:04:51;17.20;94.90
13591;DHT22;6866;50.778;7.206;2022-10-31T11:07:18;17.10;94.30
13591;DHT22;6866;50.778;7.206;2022-10-31T11:09:44;17.10;94.60
13591;DHT22;6866;50.778;7.206;2022-10-31T11:12:22;17.10;95.10
13591;DHT22;6866;50.778;7.206;2022-10-31T11:14:54;17.10;95.00
13591;DHT22;6866;50.778;7.206;2022-10-31T11:19:46;17.20;95.20
13591;DHT22;6866;50.778;7.206;2022-10-31T11:22:17;17.40;95.00
13591;DHT22;6866;50.778;7.206;2022-10-31T11:24:43;17.40;94.60
13591;DHT22;6866;50.778;7.206;2022-10-31T11:27:20;17.50;94.90
13591;DHT22;6866;50.778;7.206;2022-10-31T11:29:46;17.50;95.20
13591;DHT22;6866;50.778;7.206;2022-10-31T11:32:22;17.40;95.00
13591;DHT22;6866;50.778;7.206;2022-10-31T11:34:57;17.40;95.30
13591;DHT22;6866;50.778;7.206;2022-10-31T11:37:29;17.50;95.10
13591;DHT22;6866;50.778;7.206;2022-10-31T11:39:58;17.60;95.20
13591;DHT22;6866;50.778;7.206;2022-10-31T11:42:30;17.70;94.60
13591;DHT22;6866;50.778;7.206;2022-10-31T11:45:01;17.80;94.40
13591;DHT22;6866;50.778;7.206;2022-10-31T11:47:31;17.70;94.60
13591;DHT22;6866;50.778;7.206;2022-10-31T11:50:09;17.90;94.20
13591;DHT22;6866;50.778;7.206;2022-10-31T11:52:38;17.90;94.20
13591;DHT22;6866;50.778;7.206;2022-10-31T11:55:34;18.00;93.60
13591;DHT22;6866;50.778;7.206;2022-10-31T11:58:01;18.10;93.40
13591;DHT22;6866;50.778;7.206;2022-10-31T12:00:31;18.20;93.30
13591;DHT22;6866;50.778;7.206;2022-10-31T12:03:26;18.20;92.70
13591;DHT22;6866;50.778;7.206;2022-10-31T12:05:56;18.20;93.20
13591;DHT22;6866;50.778;7.206;2022-10-31T12:08:28;18.30;92.90
13591;DHT22;6866;50.778;7.206;2022-10-31T12:19:45;18.20;92.30
13591;DHT22;6866;50.778;7.206;2022-10-31T12:22:41;18.30;92.20
13591;DHT22;6866;50.778;7.206;2022-10-31T12:33:56;18.50;92.00
13591;DHT22;6866;50.778;7.206;2022-10-31T12:37:03;18.60;92.40
13591;DHT22;6866;50.778;7.206;2022-10-31T12:42:37;18.60;91.80
13591;DHT22;6866;50.778;7.206;2022-10-31T12:45:41;18.60;92.00
13591;DHT22;6866;50.778;7.206;2022-10-31T12:53:28;18.50;92.40
13591;DHT22;6866;50.778;7.206;2022-10-31T12:58:55;18.60;92.40
13591;DHT22;6866;50.778;7.206;2022-10-31T13:01:39;18.60;92.00
13591;DHT22;6866;50.778;7.206;2022-10-31T13:04:15;18.50;91.60
13591;DHT22;6866;50.778;7.206;2022-10-31T13:06:48;18.50;91.80
13591;DHT22;6866;50.778;7.206;2022-10-31T13:09:23;18.50;92.20
13591;DHT22;6866;50.778;7.206;2022-10-31T13:11:56;18.50;91.60
13591;DHT22;6866;50.778;7.206;2022-10-31T13:14:25;18.50;92.00
13591;DHT22;6866;50.778;7.206;2022-10-31T13:16:52;18.50;92.30
13591;DHT22;6866;50.778;7.206;2022-10-31T13:19:30;18.50;92.00
13591;DHT22;6866;50.778;7.206;2022-10-31T13:22:10;18.50;92.20
13591;DHT22;6866;50.778;7.206;2022-10-31T13:24:50;18.50;91.70
13591;DHT22;6866;50.778;7.206;2022-10-31T13:27:26;18.50;91.90
13591;DHT22;6866;50.778;7.206;2022-10-31T13:30:05;18.50;91.70
13591;DHT22;6866;50.778;7.206;2022-10-31T13:35:29;18.60;91.20
13591;DHT22;6866;50.778;7.206;2022-10-31T13:40:50;18.70;90.90
13591;DHT22;6866;50.778;7.206;2022-10-31T13:43:51;18.70;90.40
13591;DHT22;6866;50.778;7.206;2022-10-31T13:46:33;18.70;90.90
13591;DHT22;6866;50.778;7.206;2022-10-31T13:49:00;18.70;90.80
13591;DHT22;6866;50.778;7.206;2022-10-31T13:51:27;18.70;90.60
13591;DHT22;6866;50.778;7.206;2022-10-31T13:53:59;18.70;90.90
13591;DHT22;6866;50.778;7.206;2022-10-31T14:01:24;18.60;90.90
13591;DHT22;6866;50.778;7.206;2022-10-31T14:04:12;18.50;90.60
13591;DHT22;6866;50.778;7.206;2022-10-31T14:06:52;18.50;90.70
13591;DHT22;6866;50.778;7.206;2022-10-31T14:09:31;18.50;90.50
13591;DHT22;6866;50.778;7.206;2022-10-31T14:12:21;18.50;90.90
13591;DHT22;6866;50.778;7.206;2022-10-31T14:14:50;18.50;91.00
13591;DHT22;6866;50.778;7.206;2022-10-31T14:17:25;18.40;91.40
13591;DHT22;6866;50.778;7.206;2022-10-31T14:22:37;18.40;91.40
13591;DHT22;6866;50.778;7.206;2022-10-31T14:25:28;18.30;91.00
13591;DHT22;6866;50.778;7.206;2022-10-31T14:27:55;18.30;91.20
13591;DHT22;6866;50.778;7.206;2022-10-31T14:30:23;18.30;91.20
13591;DHT22;6866;50.778;7.206;2022-10-31T14:32:52;18.30;91.00
13591;DHT22;6866;50.778;7.206;2022-10-31T14:35:20;18.30;91.30
13591;DHT22;6866;50.778;7.206;2022-10-31T14:38:05;18.30;91.00
13591;DHT22;6866;50.778;7.206;2022-10-31T14:44:00;18.30;91.00
13591;DHT22;6866;50.778;7.206;2022-10-31T14:47:10;18.20;91.20
13591;DHT22;6866;50.778;7.206;2022-10-31T14:52:22;18.20;90.90
13591;DHT22;6866;50.778;7.206;2022-10-31T14:54:52;18.20;90.70
13591;DHT22;6866;50.778;7.206;2022-10-31T14:57:25;18.20;90.70
13591;DHT22;6866;50.778;7.206;2022-10-31T14:59:57;18.20;90.90
13591;DHT22;6866;50.778;7.206;2022-10-31T15:02:28;18.20;90.60
13591;DHT22;6866;50.778;7.206;2022-10-31T15:04:56;18.20;90.10
13591;DHT22;6866;50.778;7.206;2022-10-31T15:07:24;18.20;89.90
13591;DHT22;6866;50.778;7.206;2022-10-31T15:10:04;18.20;89.60
13591;DHT22;6866;50.778;7.206;2022-10-31T15:12:33;18.20;90.00
13591;DHT22;6866;50.778;7.206;2022-10-31T15:15:25;18.20;89.70
13591;DHT22;6866;50.778;7.206;2022-10-31T15:17:55;18.20;90.00
13591;DHT22;6866;50.778;7.206;2022-10-31T15:20:24;18.20;90.20
13591;DHT22;6866;50.778;7.206;2022-10-31T15:22:51;18.10;90.20
13591;DHT22;6866;50.778;7.206;2022-10-31T15:25:19;18.10;90.10
13591;DHT22;6866;50.778;7.206;2022-10-31T15:27:50;18.10;90.50
13591;DHT22;6866;50.778;7.206;2022-10-31T15:30:27;18.10;90.70
13591;DHT22;6866;50.778;7.206;2022-10-31T15:32:53;18.00;90.90
13591;DHT22;6866;50.778;7.206;2022-10-31T15:35:27;18.00;91.00
13591;DHT22;6866;50.778;7.206;2022-10-31T15:37:54;17.90;91.20
13591;DHT22;6866;50.778;7.206;2022-10-31T15:40:23;17.90;90.80
13591;DHT22;6866;50.778;7.206;2022-10-31T15:42:58;17.90;90.90
13591;DHT22;6866;50.778;7.206;2022-10-31T15:45:26;17.90;90.70
13591;DHT22;6866;50.778;7.206;2022-10-31T15:47:57;17.80;90.70
13591;DHT22;6866;50.778;7.206;2022-10-31T15:50:36;17.80;90.90
13591;DHT22;6866;50.778;7.206;2022-10-31T15:53:04;17.70;91.10
13591;DHT22;6866;50.778;7.206;2022-10-31T15:55:35;17.70;91.10
13591;DHT22;6866;50.778;7.206;2022-10-31T15:58:09;17.60;91.20
13591;DHT22;6866;50.778;7.206;2022-10-31T16:00:37;17.60;91.40
13591;DHT22;6866;50.778;7.206;2022-10-31T16:03:09;17.50;91.60
13591;DHT22;6866;50.778;7.206;2022-10-31T16:05:49;17.50;91.50
13591;DHT22;6866;50.778;7.206;2022-10-31T16:13:51;17.40;91.90
13591;DHT22;6866;50.778;7.206;2022-10-31T16:16:18;17.40;91.80
13591;DHT22;6866;50.778;7.206;2022-10-31T16:18:46;17.40;91.60
13591;DHT22;6866;50.778;7.206;2022-10-31T16:21:12;17.40;91.70
13591;DHT22;6866;50.778;7.206;2022-10-31T16:23:39;17.40;91.40
13591;DHT22;6866;50.778;7.206;2022-10-31T16:26:09;17.40;91.50
13591;DHT22;6866;50.778;7.206;2022-10-31T16:28:35;17.30;91.50
13591;DHT22;6866;50.778;7.206;2022-10-31T16:31:01;17.30;91.20
13591;DHT22;6866;50.778;7.206;2022-10-31T16:33:37;17.40;91.40
13591;DHT22;6866;50.778;7.206;2022-10-31T16:38:54;17.40;91.10
13591;DHT22;6866;50.778;7.206;2022-10-31T16:41:20;17.40;91.10
13591;DHT22;6866;50.778;7.206;2022-10-31T16:43:45;17.30;91.30
13591;DHT22;6866;50.778;7.206;2022-10-31T16:46:37;17.30;91.10
13591;DHT22;6866;50.778;7.206;2022-10-31T16:49:03;17.40;91.00
13591;DHT22;6866;50.778;7.206;2022-10-31T16:51:28;17.30;91.20
13591;DHT22;6866;50.778;7.206;2022-10-31T16:53:54;17.30;91.20
13591;DHT22;6866;50.778;7.206;2022-10-31T16:56:26;17.30;91.10
13591;DHT22;6866;50.778;7.206;2022-10-31T16:58:52;17.20;91.30
13591;DHT22;6866;50.778;7.206;2022-10-31T17:01:18;17.20;91.50
13591;DHT22;6866;50.778;7.206;2022-10-31T17:03:44;17.20;91.60
13591;DHT22;6866;50.778;7.206;2022-10-31T17:06:13;17.10;92.00
13591;DHT22;6866;50.778;7.206;2022-10-31T17:08:39;17.10;92.20
13591;DHT22;6866;50.778;7.206;2022-10-31T17:11:05;17.10;92.50
13591;DHT22;6866;50.778;7.206;2022-10-31T17:13:32;17.00;92.70
13591;DHT22;6866;50.778;7.206;2022-10-31T17:15:59;17.00;92.80
13591;DHT22;6866;50.778;7.206;2022-10-31T17:18:26;17.00;92.70
13591;DHT22;6866;50.778;7.206;2022-10-31T17:20:56;17.00;93.00
13591;DHT22;6866;50.778;7.206;2022-10-31T17:23:23;16.90;93.00
13591;DHT22;6866;50.778;7.206;2022-10-31T17:25:49;16.90;93.30
13591;DHT22;6866;50.778;7.206;2022-10-31T17:28:14;16.80;93.80
13591;DHT22;6866;50.778;7.206;2022-10-31T17:30:41;16.80;94.00
13591;DHT22;6866;50.778;7.206;2022-10-31T17:33:12;16.70;94.10
13591;DHT22;6866;50.778;7.206;2022-10-31T17:35:37;16.70;94.30
13591;DHT22;6866;50.778;7.206;2022-10-31T17:38:03;16.60;94.40
13591;DHT22;6866;50.778;7.206;2022-10-31T17:40:28;16.60;94.60
13591;DHT22;6866;50.778;7.206;2022-10-31T17:42:56;16.50;94.70
13591;DHT22;6866;50.778;7.206;2022-10-31T17:45:23;16.50;95.00
13591;DHT22;6866;50.778;7.206;2022-10-31T17:47:50;16.50;95.20
13591;DHT22;6866;50.778;7.206;2022-10-31T17:50:18;16.40;95.30
13591;DHT22;6866;50.778;7.206;2022-10-31T17:52:44;16.40;95.30
13591;DHT22;6866;50.778;7.206;2022-10-31T17:55:10;16.40;95.10
13591;DHT22;6866;50.778;7.206;2022-10-31T17:57:37;16.40;95.20
13591;DHT22;6866;50.778;7.206;2022-10-31T18:00:04;16.40;95.10
13591;DHT22;6866;50.778;7.206;2022-10-31T18:02:30;16.40;95.20
13591;DHT22;6866;50.778;7.206;2022-10-31T18:04:56;16.30;95.30